createdAt,value
2018-07-26T00:01:30.986Z,16.05
2018-07-26T00:03:59.342Z,16.00
2018-07-26T00:06:27.756Z,14.87
2018-07-26T00:08:56.142Z,15.45
2018-07-26T00:11:24.529Z,15.15
2018-07-26T00:13:53.011Z,15.13
2018-07-26T00:16:21.386Z,19.80
2018-07-26T00:18:49.789Z,17.07
2018-07-26T00:21:18.216Z,15.08
2018-07-26T00:23:46.581Z,15.48
2018-07-26T00:26:16.183Z,16.57
2018-07-26T00:28:44.638Z,16.05
2018-07-26T00:31:13.080Z,16.50
2018-07-26T00:33:41.430Z,15.45
2018-07-26T00:36:09.849Z,16.95
2018-07-26T00:38:38.236Z,16.65
2018-07-26T00:41:06.596Z,16.12
2018-07-26T00:43:34.992Z,16.45
2018-07-26T00:46:03.389Z,16.55
2018-07-26T00:48:31.750Z,19.82
2018-07-26T00:51:00.159Z,17.60
2018-07-26T00:53:28.267Z,16.23
2018-07-26T00:55:56.618Z,15.40
2018-07-26T00:58:25.017Z,16.20
2018-07-26T01:00:53.401Z,15.45
2018-07-26T01:03:21.772Z,15.85
2018-07-26T01:05:50.200Z,15.50
2018-07-26T01:08:18.570Z,16.17
2018-07-26T01:10:46.976Z,16.02
2018-07-26T01:13:15.398Z,16.20
2018-07-26T01:15:43.759Z,16.48
2018-07-26T01:18:12.105Z,16.42
2018-07-26T01:20:40.578Z,16.05
2018-07-26T01:23:08.941Z,16.75
2018-07-26T01:25:37.337Z,16.73
2018-07-26T01:28:05.788Z,16.60
2018-07-26T01:30:34.160Z,16.05
2018-07-26T01:33:02.594Z,16.25
2018-07-26T01:35:31.006Z,15.88
2018-07-26T01:37:59.407Z,16.73
2018-07-26T01:40:27.769Z,15.05
2018-07-26T01:43:39.712Z,14.58
2018-07-26T01:46:08.079Z,16.55
2018-07-26T01:48:36.450Z,15.40
2018-07-26T01:51:04.843Z,18.53
2018-07-26T01:53:33.227Z,16.65
2018-07-26T01:56:01.601Z,18.73
2018-07-26T01:58:30.010Z,17.07
2018-07-26T02:00:58.121Z,17.43
2018-07-26T02:03:26.488Z,18.57
2018-07-26T02:06:07.323Z,18.50
2018-07-26T02:08:35.688Z,16.02
2018-07-26T02:11:04.148Z,14.95
2018-07-26T02:13:33.123Z,15.53
2018-07-26T02:16:01.526Z,15.78
2018-07-26T02:18:29.884Z,14.50
2018-07-26T02:20:58.315Z,16.53
2018-07-26T02:23:26.663Z,15.58
2018-07-26T02:25:55.283Z,14.50
2018-07-26T02:28:23.689Z,15.08
2018-07-26T02:30:52.047Z,14.98
2018-07-26T02:33:20.412Z,14.63
2018-07-26T02:35:48.821Z,15.80
2018-07-26T02:38:17.156Z,15.18
2018-07-26T02:40:45.581Z,14.38
2018-07-26T02:43:14.024Z,15.75
2018-07-26T02:45:42.409Z,14.07
2018-07-26T02:48:12.251Z,17.05
2018-07-26T02:50:40.668Z,14.87
2018-07-26T02:53:09.046Z,14.30
2018-07-26T02:55:40.559Z,14.30
2018-07-26T02:58:09.385Z,13.53
2018-07-26T03:00:37.772Z,14.68
2018-07-26T03:03:06.187Z,14.10
2018-07-26T03:05:34.349Z,14.10
2018-07-26T03:08:02.720Z,13.85
2018-07-26T03:10:31.088Z,13.95
2018-07-26T03:12:59.485Z,14.58
2018-07-26T03:15:27.841Z,12.95
2018-07-26T03:17:56.245Z,14.18
2018-07-26T03:20:24.681Z,17.50
2018-07-26T03:22:53.069Z,16.40
2018-07-26T03:25:21.450Z,16.63
2018-07-26T03:27:49.848Z,14.23
2018-07-26T03:30:18.228Z,14.45
2018-07-26T03:32:46.591Z,15.23
2018-07-26T03:35:15.005Z,13.37
2018-07-26T03:37:43.392Z,15.80
2018-07-26T03:40:11.807Z,15.28
2018-07-26T03:42:40.199Z,16.15
2018-07-26T03:45:08.587Z,13.35
2018-07-26T03:47:36.950Z,13.30
2018-07-26T03:50:06.316Z,13.58
2018-07-26T03:52:34.453Z,17.00
2018-07-26T03:55:02.776Z,12.90
2018-07-26T03:57:31.156Z,12.65
2018-07-26T03:59:59.507Z,13.62
2018-07-26T04:02:27.929Z,12.73
2018-07-26T04:04:56.392Z,13.32
2018-07-26T04:07:24.789Z,13.18
2018-07-26T04:09:53.160Z,16.17
2018-07-26T04:12:21.594Z,13.88
2018-07-26T04:14:49.965Z,13.62
2018-07-26T04:17:18.356Z,14.07
2018-07-26T04:19:46.786Z,14.75
2018-07-26T04:22:15.163Z,13.60
2018-07-26T04:24:43.691Z,14.45
2018-07-26T04:27:12.174Z,14.75
2018-07-26T04:29:40.584Z,17.33
2018-07-26T04:32:08.991Z,14.90
2018-07-26T04:34:37.331Z,13.88
2018-07-26T04:37:06.680Z,14.85
2018-07-26T04:39:35.113Z,14.15
2018-07-26T04:42:03.563Z,13.95
2018-07-26T04:44:31.987Z,18.15
2018-07-26T04:47:00.411Z,17.65
2018-07-26T04:49:28.835Z,16.00
2018-07-26T04:51:57.225Z,14.70
2018-07-26T04:54:25.310Z,15.48
2018-07-26T04:56:53.720Z,15.38
2018-07-26T04:59:30.336Z,15.45
2018-07-26T05:01:58.425Z,15.05
2018-07-26T05:04:26.837Z,13.50
2018-07-26T05:06:55.243Z,15.85
2018-07-26T05:09:23.660Z,15.70
2018-07-26T05:11:52.083Z,14.40
2018-07-26T05:14:20.868Z,15.45
2018-07-26T05:16:49.292Z,13.88
2018-07-26T05:19:17.423Z,15.20
2018-07-26T05:21:45.870Z,14.20
2018-07-26T05:24:14.254Z,14.70
2018-07-26T05:26:42.678Z,16.55
2018-07-26T05:29:11.066Z,15.35
2018-07-26T05:31:39.461Z,14.70
2018-07-26T05:34:07.601Z,16.37
2018-07-26T05:36:35.995Z,14.28
2018-07-26T05:39:08.416Z,16.90
2018-07-26T05:41:36.976Z,16.77
2018-07-26T05:44:05.193Z,14.30
2018-07-26T05:46:33.547Z,14.47
2018-07-26T05:49:01.960Z,14.80
2018-07-26T05:51:30.506Z,13.32
2018-07-26T05:53:58.643Z,14.00
2018-07-26T05:56:27.062Z,13.50
2018-07-26T05:58:55.237Z,15.40
2018-07-26T06:01:23.612Z,12.98
2018-07-26T06:03:51.777Z,14.15
2018-07-26T06:06:19.926Z,15.30
2018-07-26T06:08:48.359Z,12.78
2018-07-26T06:11:16.784Z,12.88
2018-07-26T06:13:45.195Z,13.20
2018-07-26T06:16:13.294Z,14.70
2018-07-26T06:18:41.723Z,13.60
2018-07-26T06:21:10.125Z,13.32
2018-07-26T06:23:38.214Z,13.80
2018-07-26T06:26:06.639Z,14.98
2018-07-26T06:28:35.022Z,12.90
2018-07-26T06:31:03.419Z,12.75
2018-07-26T06:33:31.644Z,14.63
2018-07-26T06:35:59.936Z,12.53
2018-07-26T06:38:28.300Z,15.68
2018-07-26T06:40:56.710Z,13.45
2018-07-26T06:43:25.089Z,12.15
2018-07-26T06:45:53.485Z,11.78
2018-07-26T06:48:21.882Z,14.20
2018-07-26T06:50:50.006Z,11.88
2018-07-26T06:53:18.383Z,12.33
2018-07-26T06:55:46.808Z,13.00
2018-07-26T06:58:14.893Z,11.93
2018-07-26T07:00:43.384Z,10.93
2018-07-26T07:03:11.772Z,11.68
2018-07-26T07:05:40.181Z,11.88
2018-07-26T07:08:08.594Z,12.82
2018-07-26T07:10:37.064Z,12.40
2018-07-26T07:13:05.412Z,10.48
2018-07-26T07:15:33.846Z,10.90
2018-07-26T07:18:02.243Z,10.75
2018-07-26T07:20:30.643Z,12.17
2018-07-26T07:22:58.987Z,11.57
2018-07-26T07:25:27.160Z,11.10
2018-07-26T07:27:55.253Z,9.80
2018-07-26T07:30:23.657Z,10.00
2018-07-26T07:32:52.098Z,9.50
2018-07-26T07:35:23.649Z,9.57
2018-07-26T07:37:51.752Z,9.35
2018-07-26T07:40:20.190Z,9.50
2018-07-26T07:42:48.298Z,10.32
2018-07-26T07:45:22.595Z,9.30
2018-07-26T07:47:51.027Z,9.23
2018-07-26T07:50:19.433Z,8.65
2018-07-26T07:52:47.606Z,9.30
2018-07-26T07:55:16.043Z,9.70
2018-07-26T07:57:44.457Z,8.53
2018-07-26T08:00:12.841Z,7.80
2018-07-26T08:02:41.298Z,7.10
2018-07-26T08:05:09.767Z,7.78
2018-07-26T08:07:37.812Z,7.33
2018-07-26T08:10:08.104Z,7.20
2018-07-26T08:12:36.239Z,7.77
2018-07-26T08:15:04.981Z,7.10
2018-07-26T08:17:33.442Z,6.28
2018-07-26T08:20:01.928Z,6.28
2018-07-26T08:22:30.065Z,5.33
2018-07-26T08:24:58.557Z,5.50
2018-07-26T08:27:27.010Z,4.78
2018-07-26T08:29:55.400Z,4.92
2018-07-26T08:32:23.889Z,5.08
2018-07-26T08:34:52.405Z,5.17
2018-07-26T08:37:20.527Z,4.28
2018-07-26T08:39:48.974Z,4.37
2018-07-26T08:42:20.405Z,4.50
2018-07-26T08:45:00.170Z,4.55
2018-07-26T08:47:28.577Z,4.95
2018-07-26T08:49:56.983Z,4.70
2018-07-26T08:52:25.399Z,4.28
2018-07-26T08:54:53.503Z,4.73
2018-07-26T08:57:21.928Z,4.22
2018-07-26T08:59:50.369Z,4.33
2018-07-26T09:02:18.770Z,4.47
2018-07-26T09:04:47.184Z,4.03
2018-07-26T09:07:15.318Z,4.60
2018-07-26T09:09:43.727Z,3.98
2018-07-26T09:12:12.143Z,4.70
2018-07-26T09:14:40.586Z,4.12
2018-07-26T09:17:09.002Z,4.47
2018-07-26T09:19:37.392Z,4.12
2018-07-26T09:22:05.894Z,4.62
2018-07-26T09:24:34.302Z,4.35
2018-07-26T09:27:02.689Z,4.25
2018-07-26T09:29:31.158Z,4.33
2018-07-26T09:31:59.546Z,4.60
2018-07-26T09:34:27.693Z,4.65
2018-07-26T09:36:56.124Z,4.53
2018-07-26T09:39:24.530Z,4.70
2018-07-26T09:41:52.949Z,3.92
2018-07-26T09:44:21.415Z,3.80
2018-07-26T09:46:49.860Z,3.95
2018-07-26T09:49:18.249Z,4.30
2018-07-26T09:51:46.690Z,4.42
2018-07-26T09:54:15.099Z,4.10
2018-07-26T09:56:43.536Z,4.15
2018-07-26T09:59:11.962Z,3.85
2018-07-26T10:01:41.053Z,3.90
2018-07-26T10:04:09.450Z,3.85
2018-07-26T10:06:37.875Z,3.92
2018-07-26T10:09:10.379Z,3.72
2018-07-26T10:11:38.788Z,4.00
2018-07-26T10:14:07.240Z,3.85
2018-07-26T10:16:35.335Z,3.75
2018-07-26T10:19:03.542Z,4.20
2018-07-26T10:21:31.986Z,3.70
2018-07-26T10:24:00.461Z,3.35
2018-07-26T10:26:28.852Z,4.28
2018-07-26T10:28:57.306Z,3.83
2018-07-26T10:31:25.705Z,3.72
2018-07-26T10:33:54.127Z,3.42
2018-07-26T10:36:22.715Z,4.17
2018-07-26T10:38:50.856Z,3.80
2018-07-26T10:41:19.236Z,4.40
2018-07-26T10:43:47.653Z,3.80
2018-07-26T10:46:16.085Z,3.70
2018-07-26T10:48:44.472Z,3.92
2018-07-26T10:51:12.899Z,3.50
2018-07-26T10:53:41.023Z,3.60
2018-07-26T10:56:09.433Z,3.55
2018-07-26T10:58:37.861Z,3.50
2018-07-26T11:01:06.760Z,3.90
2018-07-26T11:03:35.163Z,3.37
2018-07-26T11:06:03.597Z,3.62
2018-07-26T11:08:31.996Z,3.50
2018-07-26T11:11:00.498Z,3.75
2018-07-26T11:13:28.928Z,4.05
2018-07-26T11:15:59.697Z,3.70
2018-07-26T11:18:28.126Z,3.17
2018-07-26T11:20:56.552Z,3.33
2018-07-26T11:23:24.982Z,3.42
2018-07-26T11:25:53.465Z,3.87
2018-07-26T11:28:21.954Z,3.35
2018-07-26T11:30:50.350Z,3.50
2018-07-26T11:33:18.490Z,3.30
2018-07-26T11:35:46.943Z,3.58
2018-07-26T11:38:15.311Z,3.27
2018-07-26T11:40:43.718Z,3.30
2018-07-26T11:43:12.203Z,4.40
2018-07-26T11:45:40.605Z,4.00
2018-07-26T11:48:09.020Z,3.70
2018-07-26T11:50:37.430Z,4.47
2018-07-26T11:53:06.089Z,4.20
2018-07-26T11:55:34.488Z,3.95
2018-07-26T11:58:02.971Z,4.45
2018-07-26T12:00:31.348Z,4.30
2018-07-26T12:02:59.750Z,4.50
2018-07-26T12:05:28.204Z,4.40
2018-07-26T12:07:56.575Z,4.42
2018-07-26T12:10:24.983Z,4.90
2018-07-26T12:12:53.437Z,4.30
2018-07-26T12:15:21.846Z,4.60
2018-07-26T12:17:50.299Z,4.30
2018-07-26T12:20:18.429Z,4.80
2018-07-26T12:22:46.845Z,4.45
2018-07-26T12:25:15.258Z,4.70
2018-07-26T12:27:43.718Z,4.50
2018-07-26T12:30:12.121Z,4.95
2018-07-26T12:32:40.524Z,5.08
2018-07-26T12:35:08.689Z,5.83
2018-07-26T12:37:37.130Z,5.90
2018-07-26T12:40:08.560Z,7.08
2018-07-26T12:42:37.027Z,7.35
2018-07-26T12:45:05.846Z,7.83
2018-07-26T12:47:34.259Z,8.20
2018-07-26T12:50:02.760Z,9.08
2018-07-26T12:52:31.147Z,9.03
2018-07-26T12:54:59.608Z,9.58
2018-07-26T12:57:28.057Z,10.70
2018-07-26T12:59:56.489Z,10.50
2018-07-26T13:02:24.871Z,10.72
2018-07-26T13:04:53.077Z,10.68
2018-07-26T13:07:21.162Z,10.43
2018-07-26T13:09:49.562Z,10.32
2018-07-26T13:12:18.034Z,11.25
2018-07-26T13:14:46.512Z,11.80
2018-07-26T13:17:15.102Z,9.15
2018-07-26T13:19:43.534Z,9.88
2018-07-26T13:22:12.045Z,10.90
2018-07-26T13:24:40.458Z,9.98
2018-07-26T13:27:08.938Z,10.50
2018-07-26T13:29:37.336Z,11.57
2018-07-26T13:32:05.924Z,12.15
2018-07-26T13:34:34.099Z,12.05
2018-07-26T13:37:02.237Z,13.20
2018-07-26T13:39:30.669Z,13.25
2018-07-26T13:41:59.115Z,13.40
2018-07-26T13:44:27.284Z,13.58
2018-07-26T13:46:55.656Z,13.83
2018-07-26T13:49:24.132Z,14.05
2018-07-26T13:51:52.586Z,13.95
2018-07-26T13:54:20.984Z,11.87
2018-07-26T13:56:49.452Z,11.08
2018-07-26T13:59:17.855Z,12.28
2018-07-26T14:01:46.279Z,12.65
2018-07-26T14:04:14.758Z,13.13
2018-07-26T14:06:43.161Z,13.60
2018-07-26T14:09:12.312Z,14.23
2018-07-26T14:11:41.187Z,12.10
2018-07-26T14:14:09.653Z,12.75
2018-07-26T14:16:38.116Z,12.95
2018-07-26T14:19:07.014Z,13.43
2018-07-26T14:21:35.445Z,13.50
2018-07-26T14:24:21.603Z,14.53
2018-07-26T14:26:50.254Z,14.95
2018-07-26T14:29:18.667Z,15.98
2018-07-26T14:31:47.098Z,15.65
2018-07-26T14:34:15.571Z,16.30
2018-07-26T14:36:44.777Z,16.57
2018-07-26T14:39:13.604Z,15.83
2018-07-26T14:41:41.998Z,15.45
2018-07-26T14:44:10.956Z,16.00
2018-07-26T14:46:39.965Z,16.67
2018-07-26T14:49:08.368Z,17.42
2018-07-26T14:51:36.784Z,17.52
2018-07-26T14:54:05.248Z,16.85
2018-07-26T14:56:33.511Z,16.77
2018-07-26T14:59:01.931Z,14.13
2018-07-26T15:01:30.381Z,16.07
2018-07-26T15:03:58.653Z,15.00
2018-07-26T15:06:27.096Z,16.17
2018-07-26T15:08:55.537Z,14.05
2018-07-26T15:11:24.416Z,13.65
2018-07-26T15:13:55.707Z,14.80
2018-07-26T15:16:23.935Z,13.93
2018-07-26T15:18:52.057Z,12.05
2018-07-26T15:21:20.469Z,11.40
2018-07-26T15:23:50.795Z,9.75
2018-07-26T15:26:22.468Z,8.70
2018-07-26T15:28:50.807Z,8.48
2018-07-26T15:31:27.593Z,7.53
2018-07-26T15:33:56.009Z,7.70
2018-07-26T15:36:24.936Z,6.40
2018-07-26T15:38:54.907Z,6.08
2018-07-26T15:41:23.198Z,5.97
2018-07-26T15:43:52.785Z,6.70
2018-07-26T15:46:22.483Z,5.87
2018-07-26T15:48:53.721Z,5.67
2018-07-26T15:51:23.861Z,23.57
2018-07-26T15:53:53.768Z,5.83
2018-07-26T15:56:22.249Z,5.70
2018-07-26T15:58:52.420Z,4.97
2018-07-26T16:01:20.918Z,5.60
2018-07-26T16:03:52.363Z,5.65
2018-07-26T16:06:21.090Z,5.20
2018-07-26T16:08:50.491Z,5.30
2018-07-26T16:11:20.222Z,5.97
2018-07-26T16:13:48.379Z,5.85
2018-07-26T16:16:17.129Z,5.05
2018-07-26T16:18:47.684Z,5.78
2018-07-26T16:21:18.391Z,5.85
2018-07-26T16:23:46.830Z,5.78
2018-07-26T16:26:21.892Z,5.72
2018-07-26T16:28:49.604Z,5.50
2018-07-26T16:31:18.055Z,6.37
2018-07-26T16:33:46.454Z,5.80
2018-07-26T16:36:14.872Z,9.03
2018-07-26T16:38:43.022Z,7.55
2018-07-26T16:41:11.427Z,5.65
2018-07-26T16:43:39.856Z,5.30
2018-07-26T16:46:08.358Z,5.25
2018-07-26T16:48:36.809Z,5.37
2018-07-26T16:51:05.261Z,5.90
2018-07-26T16:53:33.706Z,5.22
2018-07-26T16:56:01.837Z,4.80
2018-07-26T16:58:30.433Z,4.97
2018-07-26T17:00:58.768Z,5.12
2018-07-26T17:03:27.205Z,4.80
2018-07-26T17:05:55.575Z,5.05
2018-07-26T17:08:24.055Z,5.12
2018-07-26T17:10:52.460Z,5.70
2018-07-26T17:13:20.883Z,5.85
2018-07-26T17:15:49.455Z,5.40
2018-07-26T17:18:17.884Z,5.53
2018-07-26T17:24:14.888Z,5.35
2018-07-26T17:26:43.080Z,5.30
2018-07-26T17:29:11.261Z,5.72
2018-07-26T17:31:39.645Z,5.28
2018-07-26T17:34:08.105Z,5.60
2018-07-26T20:57:05.287Z,11.35
2018-07-26T20:59:36.753Z,9.48
2018-07-26T21:05:09.371Z,4.72
2018-07-26T21:07:40.948Z,4.70
2018-07-26T21:10:10.578Z,4.60
2018-07-26T21:12:56.194Z,4.60
2018-07-26T21:15:24.573Z,4.20
2018-07-26T21:17:56.773Z,4.90
2018-07-26T21:20:25.260Z,4.20
2018-07-26T21:22:59.854Z,5.23
2018-07-26T21:25:28.434Z,5.10
2018-07-26T21:27:58.449Z,4.80
2018-07-26T21:31:09.142Z,4.80
2018-07-26T21:33:45.466Z,5.50
2018-07-26T21:36:20.404Z,4.87
2018-07-26T21:38:48.892Z,5.22
2018-07-26T21:41:17.647Z,5.28
2018-07-26T21:43:47.755Z,5.10
2018-07-26T21:46:17.225Z,5.15
2018-07-26T21:49:06.380Z,4.80
2018-07-26T21:51:34.928Z,4.95
2018-07-26T21:54:03.519Z,5.85
2018-07-26T21:57:08.592Z,5.72
2018-07-26T21:59:45.948Z,6.03
2018-07-26T22:02:14.679Z,5.92
2018-07-26T22:04:44.436Z,6.10
2018-07-26T22:07:23.980Z,6.40
2018-07-26T22:09:59.790Z,5.67
2018-07-26T22:12:28.484Z,5.87
2018-07-26T22:15:00.844Z,5.90
2018-07-26T22:17:29.439Z,5.83
2018-07-26T22:19:58.104Z,5.90
2018-07-26T22:22:26.689Z,6.25
2018-07-26T22:24:59.572Z,5.75
2018-07-26T22:27:28.003Z,6.40
2018-07-26T22:30:02.320Z,6.45
2018-07-26T22:32:30.542Z,6.72
2018-07-26T22:35:00.290Z,7.20
2018-07-26T22:37:30.197Z,7.28
2018-07-26T22:40:01.743Z,6.00
2018-07-26T22:43:08.868Z,7.10
2018-07-26T22:45:39.352Z,6.45
2018-07-26T22:48:08.233Z,6.55
2018-07-26T22:50:36.846Z,6.95
2018-07-26T22:53:06.885Z,6.62
2018-07-26T22:55:37.502Z,7.30
2018-07-26T22:58:05.970Z,7.12
2018-07-26T23:00:34.421Z,7.63
2018-07-26T23:03:02.959Z,7.37
2018-07-26T23:05:32.075Z,7.28
2018-07-26T23:08:00.224Z,7.58
2018-07-26T23:10:28.692Z,7.22
2018-07-26T23:13:01.661Z,7.28
2018-07-26T23:15:32.948Z,6.47
2018-07-26T23:18:02.380Z,7.35
2018-07-26T23:20:39.927Z,6.97
2018-07-26T23:23:12.391Z,7.70
2018-07-26T23:25:41.166Z,7.37
2018-07-26T23:28:09.960Z,7.53
2018-07-26T23:30:38.588Z,7.05
2018-07-26T23:33:07.007Z,7.15
2018-07-26T23:35:35.906Z,7.37
2018-07-26T23:38:05.476Z,7.50
2018-07-26T23:40:35.252Z,7.25
2018-07-26T23:43:04.624Z,7.70
2018-07-26T23:45:33.241Z,8.00
2018-07-26T23:48:03.032Z,7.40
2018-07-26T23:50:35.183Z,7.67
2018-07-26T23:53:03.629Z,7.55
2018-07-26T23:55:33.447Z,7.03
2018-07-26T23:58:01.699Z,7.30
